Time;durP1;ratioP1;P1;durP2;ratioP2;P2;SDS_P1;SDS_P2;PMS_P1;PMS_P2;Temp;Humidity;BMP_temperature;BMP_pressure;BME280_temperature;BME280_humidity;BME280_pressure;Samples;Min_cycle;Max_cycle;Signal;HPM_P1;HPM_P2
2023/11/11 00:01:51;;;;;;;;;;;;;;;;;;5052095;28;19917;-72
2023/11/11 00:04:16;;;;;;;;;;;;;;;;;;5053147;28;20386;-73
2023/11/11 00:06:41;;;;;;;;;;;;;;;;;;5039888;28;20015;-72
2023/11/11 00:09:10;;;;;;;;;;;;;;;;;;5049738;28;20298;-72
2023/11/11 00:11:35;;;;;;;;;;;;;;;;;;5060101;28;20238;-72
2023/11/11 00:14:03;;;;;;;;;;;;;;;;;;5068983;28;20371;-73
2023/11/11 00:16:30;;;;;;;;;;;;;;;;;;5087375;27;20263;-73
2023/11/11 00:18:55;;;;;;;;;;;;;;;;;;5068015;28;20739;-73
2023/11/11 00:21:21;;;;;;;;;;;;;;;;;;5071014;28;20028;-72
2023/11/11 00:23:47;;;;;;;;;;;;;;;;;;5067905;28;20359;-72
2023/11/11 00:26:12;;;;;;;;;;;;;;;;;;5053747;28;21387;-73
2023/11/11 00:28:41;;;;;;;;;;;;;;;;;;5088255;27;20023;-74
2023/11/11 00:31:07;;;;;;;;;;;;;;;;;;5055360;28;20002;-73
2023/11/11 00:33:36;;;;;;;;;;;;;;;;;;5069214;28;20007;-72
2023/11/11 00:36:02;;;;;;;;;;;;;;;;;;5071509;28;19960;-76
2023/11/11 00:38:27;;;;;;;;;;;;;;;;;;5068621;28;20512;-75
2023/11/11 00:40:53;;;;;;;;;;;;;;;;;;5050275;28;20081;-75
2023/11/11 00:43:21;;;;;;;;;;;;;;;;;;5056174;28;19939;-75
2023/11/11 00:45:46;;;;;;;;;;;;;;;;;;5053101;28;20375;-75
2023/11/11 00:48:12;;;;;;;;;;;;;;;;;;5066830;28;19924;-73
2023/11/11 00:50:37;;;;;;;;;;;;;;;;;;5054057;28;19920;-73
2023/11/11 00:53:02;;;;;;;;;;;;;;;;;;5086963;28;19919;-73
2023/11/11 00:55:28;;;;;;;;;;;;;;;;;;5054983;28;19920;-74
2023/11/11 00:57:53;;;;;;;;;;;;;;;;;;5049713;28;19944;-73
2023/11/11 01:00:21;;;;;;;;;;;;;;;;;;5056130;28;19920;-74
2023/11/11 01:02:47;;;;;;;;;;;;;;;;;;5052345;28;20398;-76
2023/11/11 01:05:12;;;;;;;;;;;;;;;;;;5039565;28;19985;-75
2023/11/11 01:07:38;;;;;;;;;;;;;;;;;;5068613;28;19920;-74
2023/11/11 01:10:04;;;;;;;;;;;;;;;;;;5066919;28;19931;-74
2023/11/11 01:12:29;;;;;;;;;;;;;;;;;;5071033;28;20534;-73
2023/11/11 01:14:55;;;;;;;;;;;;;;;;;;5051558;28;19920;-73
2023/11/11 01:17:20;;;;;;;;;;;;;;;;;;5070064;28;19920;-73
2023/11/11 01:19:46;;;;;;;;;;;;;;;;;;5068926;28;20273;-74
2023/11/11 01:22:16;;;;;;;;;;;;;;;;;;5063993;28;20435;-74
2023/11/11 01:24:41;;;;;;;;;;;;;;;;;;5065032;28;19985;-74
2023/11/11 01:27:07;;;;;;;;;;;;;;;;;;5039025;28;20352;-73
2023/11/11 01:29:34;;;;;;;;;;;;;;;;;;5069161;28;19927;-73
2023/11/11 01:32:00;;;;;;;;;;;;;;;;;;5071039;28;20004;-73
2023/11/11 01:34:28;;;;;;;;;;;;;;;;;;5069604;28;19926;-74
2023/11/11 01:36:54;;;;;;;;;;;;;;;;;;5040123;28;19994;-73
2023/11/11 01:39:21;;;;;;;;;;;;;;;;;;5051914;28;19971;-72
2023/11/11 01:41:46;;;;;;;;;;;;;;;;;;5057207;28;19924;-74
2023/11/11 01:44:11;;;;;;;;;;;;;;;;;;5069561;28;19920;-76
2023/11/11 01:46:37;;;;;;;;;;;;;;;;;;5052977;28;20370;-76
2023/11/11 01:49:03;;;;;;;;;;;;;;;;;;5058676;28;19924;-76
2023/11/11 01:54:45;;;;;;;;;;;;;;;;;;5069666;28;19923;-75
2023/11/11 01:57:13;;;;;;;;;;;;;;;;;;5056416;28;19916;-74
2023/11/11 01:59:38;;;;;;;;;;;;;;;;;;5058799;28;19922;-75
2023/11/11 02:02:03;;;;;;;;;;;;;;;;;;5060214;28;19920;-75
2023/11/11 02:04:30;;;;;;;;;;;;;;;;;;5056614;28;20402;-75
2023/11/11 02:10:13;;;;;;;;;;;;;;;;;;5069671;28;19927;-76
2023/11/11 02:12:38;;;;;;;;;;;;;;;;;;5054964;28;19916;-76
2023/11/11 02:15:04;;;;;;;;;;;;;;;;;;5072027;28;19927;-76
2023/11/11 02:17:32;;;;;;;;;;;;;;;;;;5058296;28;20286;-74
2023/11/11 02:20:00;;;;;;;;;;;;;;;;;;5072369;28;19916;-76
2023/11/11 02:22:25;;;;;;;;;;;;;;;;;;5057892;28;20010;-76
2023/11/11 02:24:51;;;;;;;;;;;;;;;;;;5055854;28;19916;-76
2023/11/11 02:27:21;;;;;;;;;;;;;;;;;;5057254;28;19916;-74
2023/11/11 02:29:46;;;;;;;;;;;;;;;;;;5089801;27;20532;-72
2023/11/11 02:32:14;;;;;;;;;;;;;;;;;;5055678;28;19927;-70
2023/11/11 02:34:40;;;;;;;;;;;;;;;;;;5070706;28;19928;-71
2023/11/11 02:37:08;;;;;;;;;;;;;;;;;;5057925;28;19985;-74
2023/11/11 02:39:35;;;;;;;;;;;;;;;;;;5057576;28;19920;-74
2023/11/11 02:42:00;;;;;;;;;;;;;;;;;;5089516;27;20013;-70
2023/11/11 02:44:26;;;;;;;;;;;;;;;;;;5071636;28;22142;-69
2023/11/11 02:46:51;;;;;;;;;;;;;;;;;;5056682;28;20372;-71
2023/11/11 02:49:18;;;;;;;;;;;;;;;;;;5058522;28;19973;-71
2023/11/11 02:51:44;;;;;;;;;;;;;;;;;;5090212;27;20325;-72
2023/11/11 02:54:09;;;;;;;;;;;;;;;;;;5071246;28;19916;-71
2023/11/11 02:56:35;;;;;;;;;;;;;;;;;;5054954;28;19920;-72
2023/11/11 02:59:01;;;;;;;;;;;;;;;;;;5072769;28;19920;-73
2023/11/11 03:01:26;;;;;;;;;;;;;;;;;;5070686;28;19920;-73
2023/11/11 03:03:51;;;;;;;;;;;;;;;;;;5071067;28;19971;-72
2023/11/11 03:06:17;;;;;;;;;;;;;;;;;;5074425;28;20007;-72
2023/11/11 03:08:43;;;;;;;;;;;;;;;;;;5070662;28;19924;-72
2023/11/11 03:11:11;;;;;;;;;;;;;;;;;;5059188;28;20717;-73
2023/11/11 03:13:36;;;;;;;;;;;;;;;;;;5072436;28;21428;-74
2023/11/11 03:19:19;;;;;;;;;;;;;;;;;;5072194;28;20132;-75
2023/11/11 03:21:47;;;;;;;;;;;;;;;;;;5066037;28;19978;-74
2023/11/11 03:24:16;;;;;;;;;;;;;;;;;;5071474;28;20085;-74
2023/11/11 03:26:44;;;;;;;;;;;;;;;;;;5059443;28;19920;-71
2023/11/11 03:29:09;;;;;;;;;;;;;;;;;;5070022;28;19923;-75
2023/11/11 03:31:35;;;;;;;;;;;;;;;;;;5088519;27;20575;-76
2023/11/11 03:34:00;;;;;;;;;;;;;;;;;;5055634;28;19928;-75
2023/11/11 03:36:26;;;;;;;;;;;;;;;;;;5059142;28;19927;-72
2023/11/11 03:38:52;;;;;;;;;;;;;;;;;;5052418;28;19982;-71
2023/11/11 03:41:17;;;;;;;;;;;;;;;;;;5056384;28;19916;-75
2023/11/11 03:43:42;;;;;;;;;;;;;;;;;;5071115;28;19926;-74
2023/11/11 03:46:08;;;;;;;;;;;;;;;;;;5071625;28;19927;-73
2023/11/11 03:48:34;;;;;;;;;;;;;;;;;;5057450;28;19927;-75
2023/11/11 03:50:59;;;;;;;;;;;;;;;;;;5070820;28;19920;-74
2023/11/11 03:53:24;;;;;;;;;;;;;;;;;;5467127;23;19928;-85
2023/11/11 03:55:51;;;;;;;;;;;;;;;;;;5052631;28;19999;-85
2023/11/11 03:58:24;;;;;;;;;;;;;;;;;;5046697;28;19940;-84
2023/11/11 04:00:52;;;;;;;;;;;;;;;;;;5057370;28;19976;-85
2023/11/11 04:03:17;;;;;;;;;;;;;;;;;;5059557;28;19935;-83
2023/11/11 04:05:42;;;;;;;;;;;;;;;;;;5068119;28;19921;-82
2023/11/11 04:08:08;;;;;;;;;;;;;;;;;;5085576;28;19923;-83
2023/11/11 04:10:33;;;;;;;;;;;;;;;;;;5068468;28;19912;-82
2023/11/11 04:13:00;;;;;;;;;;;;;;;;;;5072503;28;19936;-81
2023/11/11 04:15:26;;;;;;;;;;;;;;;;;;5084853;28;19954;-83
2023/11/11 04:17:51;;;;;;;;;;;;;;;;;;5069086;28;20767;-83
2023/11/11 04:20:20;;;;;;;;;;;;;;;;;;5050964;28;19924;-82
2023/11/11 04:22:45;;;;;;;;;;;;;;;;;;5080223;28;19913;-84
2023/11/11 04:25:11;;;;;;;;;;;;;;;;;;5044305;28;19912;-84
2023/11/11 04:27:37;;;;;;;;;;;;;;;;;;5073893;28;20034;-85
2023/11/11 04:30:06;;;;;;;;;;;;;;;;;;5057379;28;20587;-85
2023/11/11 04:32:32;;;;;;;;;;;;;;;;;;5051376;28;19916;-85
2023/11/11 04:34:57;;;;;;;;;;;;;;;;;;5039257;28;19927;-87
2023/11/11 04:37:22;;;;;;;;;;;;;;;;;;5053403;28;19921;-83
2023/11/11 04:39:48;;;;;;;;;;;;;;;;;;5051854;28;20337;-83
2023/11/11 04:42:20;;;;;;;;;;;;;;;;;;5065885;28;20008;-83
2023/11/11 04:44:46;;;;;;;;;;;;;;;;;;5054777;28;19925;-83
2023/11/11 04:47:12;;;;;;;;;;;;;;;;;;5050936;28;19913;-88
2023/11/11 04:49:37;;;;;;;;;;;;;;;;;;5066062;28;19935;-85
2023/11/11 04:52:04;;;;;;;;;;;;;;;;;;5050094;28;19913;-84
2023/11/11 04:54:30;;;;;;;;;;;;;;;;;;5068968;28;20274;-84
2023/11/11 04:56:55;;;;;;;;;;;;;;;;;;5053330;28;19917;-85
2023/11/11 04:59:30;;;;;;;;;;;;;;;;;;5051583;28;20241;-84
2023/11/11 05:02:04;;;;;;;;;;;;;;;;;;5052667;28;19932;-85
2023/11/11 05:04:29;;;;;;;;;;;;;;;;;;5051586;28;20016;-86
2023/11/11 05:06:57;;;;;;;;;;;;;;;;;;5056215;28;22168;-84
2023/11/11 05:09:22;;;;;;;;;;;;;;;;;;5053926;28;20084;-83
2023/11/11 05:11:47;;;;;;;;;;;;;;;;;;5052023;28;19956;-85
2023/11/11 05:14:17;;;;;;;;;;;;;;;;;;5046270;28;19939;-85
2023/11/11 05:16:50;;;;;;;;;;;;;;;;;;5050571;28;19923;-82
2023/11/11 05:19:15;;;;;;;;;;;;;;;;;;5048613;28;19916;-86
2023/11/11 05:21:43;;;;;;;;;;;;;;;;;;5037133;28;19927;-84
2023/11/11 05:24:11;;;;;;;;;;;;;;;;;;5055283;28;19923;-87
2023/11/11 05:26:39;;;;;;;;;;;;;;;;;;5041899;28;20004;-84
2023/11/11 05:29:04;;;;;;;;;;;;;;;;;;5080319;28;19917;-84
2023/11/11 05:31:32;;;;;;;;;;;;;;;;;;5059920;28;19920;-82
2023/11/11 05:33:57;;;;;;;;;;;;;;;;;;5071715;28;19968;-85
2023/11/11 05:36:26;;;;;;;;;;;;;;;;;;5058511;28;19951;-82
2023/11/11 05:38:53;;;;;;;;;;;;;;;;;;5070546;28;19923;-82
2023/11/11 05:41:18;;;;;;;;;;;;;;;;;;5068405;28;19923;-81
2023/11/11 05:43:46;;;;;;;;;;;;;;;;;;5050880;28;20115;-83
2023/11/11 05:46:13;;;;;;;;;;;;;;;;;;5077913;28;20084;-82
2023/11/11 05:48:39;;;;;;;;;;;;;;;;;;5082147;28;19994;-84
2023/11/11 05:51:09;;;;;;;;;;;;;;;;;;5058677;28;19947;-84
2023/11/11 05:53:36;;;;;;;;;;;;;;;;;;5042661;28;20484;-81
2023/11/11 05:56:04;;;;;;;;;;;;;;;;;;5067575;28;19927;-83
2023/11/11 05:58:29;;;;;;;;;;;;;;;;;;5074288;28;19921;-87
2023/11/11 06:00:58;;;;;;;;;;;;;;;;;;5059212;28;19931;-83
2023/11/11 06:03:28;;;;;;;;;;;;;;;;;;5069961;28;19913;-85
2023/11/11 06:05:58;;;;;;;;;;;;;;;;;;5056416;28;19913;-83
2023/11/11 06:08:27;;;;;;;;;;;;;;;;;;5057092;28;19928;-85
2023/11/11 06:10:52;;;;;;;;;;;;;;;;;;5057222;28;19913;-88
2023/11/11 06:13:20;;;;;;;;;;;;;;;;;;5026974;28;19964;-85
2023/11/11 06:15:45;;;;;;;;;;;;;;;;;;5058917;28;19962;-83
2023/11/11 06:18:11;;;;;;;;;;;;;;;;;;5084139;28;19913;-84
2023/11/11 06:20:41;;;;;;;;;;;;;;;;;;5071117;28;19917;-82
2023/11/11 06:23:06;;;;;;;;;;;;;;;;;;5062735;28;20023;-83
2023/11/11 06:25:35;;;;;;;;;;;;;;;;;;5076815;28;19943;-84
2023/11/11 06:28:02;;;;;;;;;;;;;;;;;;5078568;28;20332;-82
2023/11/11 06:30:28;;;;;;;;;;;;;;;;;;5080995;28;20007;-82
2023/11/11 06:32:54;;;;;;;;;;;;;;;;;;5090855;28;20050;-83
2023/11/11 06:35:19;;;;;;;;;;;;;;;;;;5073579;28;19912;-83
2023/11/11 06:37:45;;;;;;;;;;;;;;;;;;5067768;28;19988;-83
2023/11/11 06:40:10;;;;;;;;;;;;;;;;;;5059360;28;19923;-88
2023/11/11 06:42:36;;;;;;;;;;;;;;;;;;5077992;28;19924;-85
2023/11/11 06:45:05;;;;;;;;;;;;;;;;;;5081846;28;19932;-85
2023/11/11 06:47:31;;;;;;;;;;;;;;;;;;5063735;28;19926;-84
2023/11/11 06:49:56;;;;;;;;;;;;;;;;;;5066925;28;20259;-83
2023/11/11 06:52:22;;;;;;;;;;;;;;;;;;5064906;28;19968;-83
2023/11/11 06:54:48;;;;;;;;;;;;;;;;;;5086211;28;19924;-85
2023/11/11 06:57:16;;;;;;;;;;;;;;;;;;5082733;28;19968;-84
2023/11/11 06:59:41;;;;;;;;;;;;;;;;;;5082862;28;19912;-83
2023/11/11 07:02:07;;;;;;;;;;;;;;;;;;5049367;28;19923;-87
2023/11/11 07:04:32;;;;;;;;;;;;;;;;;;5067758;28;19921;-85
2023/11/11 07:07:01;;;;;;;;;;;;;;;;;;5063511;28;19924;-82
2023/11/11 07:09:26;;;;;;;;;;;;;;;;;;5049902;28;20299;-83
2023/11/11 07:11:52;;;;;;;;;;;;;;;;;;5086822;28;20417;-81
2023/11/11 07:14:19;;;;;;;;;;;;;;;;;;5086205;28;19923;-85
2023/11/11 07:16:45;;;;;;;;;;;;;;;;;;5067474;28;19956;-82
2023/11/11 07:19:10;;;;;;;;;;;;;;;;;;5082449;28;21462;-81
2023/11/11 07:21:37;;;;;;;;;;;;;;;;;;5085623;28;19943;-83
2023/11/11 07:24:02;;;;;;;;;;;;;;;;;;5071855;28;19966;-81
2023/11/11 07:26:28;;;;;;;;;;;;;;;;;;5070369;28;19929;-82
2023/11/11 07:28:53;;;;;;;;;;;;;;;;;;5047112;28;19984;-81
2023/11/11 07:31:22;;;;;;;;;;;;;;;;;;5075730;28;19901;-84
2023/11/11 07:33:47;;;;;;;;;;;;;;;;;;5086202;28;19938;-81
2023/11/11 07:36:12;;;;;;;;;;;;;;;;;;5079308;28;19908;-83
2023/11/11 07:38:40;;;;;;;;;;;;;;;;;;5059049;28;19905;-80
2023/11/11 07:41:07;;;;;;;;;;;;;;;;;;5085181;28;19916;-81
2023/11/11 07:43:34;;;;;;;;;;;;;;;;;;5072683;28;19959;-83
2023/11/11 07:46:00;;;;;;;;;;;;;;;;;;5067803;28;19917;-84
2023/11/11 07:48:25;;;;;;;;;;;;;;;;;;5088684;28;19913;-83
2023/11/11 07:50:53;;;;;;;;;;;;;;;;;;5057810;28;20004;-82
2023/11/11 07:53:20;;;;;;;;;;;;;;;;;;5056328;28;19931;-84
2023/11/11 07:55:45;;;;;;;;;;;;;;;;;;5090044;28;19912;-84
2023/11/11 07:58:14;;;;;;;;;;;;;;;;;;5072387;28;19931;-82
2023/11/11 08:00:39;;;;;;;;;;;;;;;;;;5068656;28;19996;-82
2023/11/11 08:03:07;;;;;;;;;;;;;;;;;;5056408;28;19905;-83
2023/11/11 08:05:34;;;;;;;;;;;;;;;;;;5093725;28;19928;-85
2023/11/11 08:07:59;;;;;;;;;;;;;;;;;;5076124;28;19998;-82
2023/11/11 08:10:28;;;;;;;;;;;;;;;;;;5090808;28;19930;-82
2023/11/11 08:12:53;;;;;;;;;;;;;;;;;;5053275;28;19929;-81
2023/11/11 08:15:19;;;;;;;;;;;;;;;;;;5090713;28;19988;-81
2023/11/11 08:17:45;;;;;;;;;;;;;;;;;;5053650;28;19991;-82
2023/11/11 08:20:11;;;;;;;;;;;;;;;;;;5050834;28;19902;-84
2023/11/11 08:22:40;;;;;;;;;;;;;;;;;;5075528;28;19973;-83
2023/11/11 08:25:12;;;;;;;;;;;;;;;;;;5069089;28;19920;-82
2023/11/11 08:27:40;;;;;;;;;;;;;;;;;;5067299;28;19985;-81
2023/11/11 08:30:12;;;;;;;;;;;;;;;;;;5043707;28;19935;-80
2023/11/11 08:32:38;;;;;;;;;;;;;;;;;;5072091;28;19909;-84
2023/11/11 08:35:05;;;;;;;;;;;;;;;;;;5084972;28;20226;-86
2023/11/11 08:37:34;;;;;;;;;;;;;;;;;;5082910;28;19975;-86
2023/11/11 08:40:10;;;;;;;;;;;;;;;;;;5044590;28;20315;-85
2023/11/11 08:42:35;;;;;;;;;;;;;;;;;;5055150;28;20000;-84
2023/11/11 08:45:02;;;;;;;;;;;;;;;;;;5067082;28;19909;-83
2023/11/11 08:47:27;;;;;;;;;;;;;;;;;;5070544;28;19932;-83
2023/11/11 08:49:55;;;;;;;;;;;;;;;;;;5066721;28;19917;-83
2023/11/11 08:52:27;;;;;;;;;;;;;;;;;;5083924;28;19924;-83
2023/11/11 08:54:53;;;;;;;;;;;;;;;;;;5071113;28;19916;-83
2023/11/11 08:57:19;;;;;;;;;;;;;;;;;;5076972;28;20031;-84
2023/11/11 08:59:45;;;;;;;;;;;;;;;;;;5077194;28;20323;-85
2023/11/11 09:02:10;;;;;;;;;;;;;;;;;;5058293;28;19987;-86
2023/11/11 09:04:36;;;;;;;;;;;;;;;;;;5060929;28;19913;-84
2023/11/11 09:07:02;;;;;;;;;;;;;;;;;;5060268;28;19913;-84
2023/11/11 09:09:30;;;;;;;;;;;;;;;;;;5064744;28;19935;-83
2023/11/11 09:11:57;;;;;;;;;;;;;;;;;;5077338;28;19923;-84
2023/11/11 09:14:25;;;;;;;;;;;;;;;;;;5078538;28;19984;-84
2023/11/11 09:16:53;;;;;;;;;;;;;;;;;;5078059;28;19913;-84
2023/11/11 09:19:18;;;;;;;;;;;;;;;;;;5058990;28;19917;-85
2023/11/11 09:21:43;;;;;;;;;;;;;;;;;;5083334;28;20314;-83
2023/11/11 09:24:13;;;;;;;;;;;;;;;;;;5068207;28;19970;-83
2023/11/11 09:26:39;;;;;;;;;;;;;;;;;;5060725;28;19921;-83
2023/11/11 09:29:04;;;;;;;;;;;;;;;;;;5066028;28;20239;-80
2023/11/11 09:31:29;;;;;;;;;;;;;;;;;;5081178;28;20218;-83
2023/11/11 09:34:00;;;;;;;;;;;;;;;;;;5078023;28;19919;-82
2023/11/11 09:36:25;;;;;;;;;;;;;;;;;;5024773;28;19924;-83
2023/11/11 09:38:51;;;;;;;;;;;;;;;;;;5080510;28;19909;-83
2023/11/11 09:41:16;;;;;;;;;;;;;;;;;;5082789;28;19923;-85
2023/11/11 09:43:42;;;;;;;;;;;;;;;;;;5066896;28;19939;-82
2023/11/11 09:46:08;;;;;;;;;;;;;;;;;;5042064;28;19980;-82
2023/11/11 09:48:33;;;;;;;;;;;;;;;;;;5061213;28;19939;-84
2023/11/11 09:50:58;;;;;;;;;;;;;;;;;;5064066;28;20677;-83
2023/11/11 09:53:24;;;;;;;;;;;;;;;;;;5060938;28;19928;-83
2023/11/11 09:55:52;;;;;;;;;;;;;;;;;;5075663;28;20002;-83
2023/11/11 09:58:19;;;;;;;;;;;;;;;;;;5040816;28;19917;-82
2023/11/11 10:00:45;;;;;;;;;;;;;;;;;;5025724;28;19959;-83
2023/11/11 10:03:10;;;;;;;;;;;;;;;;;;5075920;28;19917;-85
2023/11/11 10:05:38;;;;;;;;;;;;;;;;;;5056883;28;19979;-83
2023/11/11 10:08:03;;;;;;;;;;;;;;;;;;5045843;28;20339;-84
2023/11/11 10:10:31;;;;;;;;;;;;;;;;;;5043165;28;19931;-84
2023/11/11 10:12:59;;;;;;;;;;;;;;;;;;5063907;28;19921;-83
2023/11/11 10:15:25;;;;;;;;;;;;;;;;;;5041905;28;19909;-84
2023/11/11 10:17:50;;;;;;;;;;;;;;;;;;5054547;28;20020;-83
2023/11/11 10:20:20;;;;;;;;;;;;;;;;;;5034891;28;20006;-86
2023/11/11 10:22:45;;;;;;;;;;;;;;;;;;5028497;28;19917;-85
2023/11/11 10:25:17;;;;;;;;;;;;;;;;;;5033969;28;19924;-84
2023/11/11 10:27:42;;;;;;;;;;;;;;;;;;5050831;28;19922;-88
2023/11/11 10:30:10;;;;;;;;;;;;;;;;;;5067752;28;19920;-83
2023/11/11 10:32:37;;;;;;;;;;;;;;;;;;5067997;28;19917;-83
2023/11/11 10:35:02;;;;;;;;;;;;;;;;;;5066693;28;19962;-87
2023/11/11 10:37:29;;;;;;;;;;;;;;;;;;5047950;28;20016;-84
2023/11/11 10:39:58;;;;;;;;;;;;;;;;;;5028002;28;19991;-86
2023/11/11 10:42:27;;;;;;;;;;;;;;;;;;5069191;28;19932;-89
2023/11/11 10:44:52;;;;;;;;;;;;;;;;;;5056054;28;19913;-85
2023/11/11 10:47:21;;;;;;;;;;;;;;;;;;5052716;28;19917;-84
2023/11/11 10:49:49;;;;;;;;;;;;;;;;;;5060586;28;19998;-84
2023/11/11 10:52:17;;;;;;;;;;;;;;;;;;5065281;28;19909;-83
2023/11/11 10:54:46;;;;;;;;;;;;;;;;;;5048376;28;19969;-83
2023/11/11 10:57:12;;;;;;;;;;;;;;;;;;5082518;28;19913;-83
2023/11/11 10:59:38;;;;;;;;;;;;;;;;;;5064681;28;19914;-83
2023/11/11 11:02:03;;;;;;;;;;;;;;;;;;5037642;28;19949;-84
2023/11/11 11:04:32;;;;;;;;;;;;;;;;;;5066603;28;19927;-84
2023/11/11 11:07:03;;;;;;;;;;;;;;;;;;5040032;28;19924;-85
2023/11/11 11:09:29;;;;;;;;;;;;;;;;;;5052348;28;19929;-87
2023/11/11 11:11:57;;;;;;;;;;;;;;;;;;5056164;28;19916;-85
2023/11/11 11:14:22;;;;;;;;;;;;;;;;;;5067333;28;19939;-84
2023/11/11 11:16:51;;;;;;;;;;;;;;;;;;5051317;28;20007;-85
2023/11/11 11:19:19;;;;;;;;;;;;;;;;;;5053044;28;19996;-83
2023/11/11 11:21:46;;;;;;;;;;;;;;;;;;5069253;28;19940;-84
2023/11/11 11:24:12;;;;;;;;;;;;;;;;;;5053833;28;20246;-84
2023/11/11 11:26:40;;;;;;;;;;;;;;;;;;5053254;28;19923;-82
2023/11/11 11:29:10;;;;;;;;;;;;;;;;;;5032957;28;19917;-86
2023/11/11 11:31:36;;;;;;;;;;;;;;;;;;5047674;28;19928;-84
2023/11/11 11:34:07;;;;;;;;;;;;;;;;;;5048318;28;20236;-86
2023/11/11 11:36:39;;;;;;;;;;;;;;;;;;5045782;28;19921;-85
2023/11/11 11:39:05;;;;;;;;;;;;;;;;;;5068075;28;19917;-86
2023/11/11 11:41:36;;;;;;;;;;;;;;;;;;5030370;28;19913;-81
2023/11/11 11:44:11;;;;;;;;;;;;;;;;;;5012467;28;20141;-83
2023/11/11 11:46:36;;;;;;;;;;;;;;;;;;5064978;28;20338;-85
2023/11/11 11:49:04;;;;;;;;;;;;;;;;;;5047805;28;19929;-85
2023/11/11 11:51:37;;;;;;;;;;;;;;;;;;5046575;28;20819;-84
2023/11/11 11:54:03;;;;;;;;;;;;;;;;;;5053171;28;20318;-84
2023/11/11 11:56:28;;;;;;;;;;;;;;;;;;5053900;28;19913;-85
2023/11/11 11:58:58;;;;;;;;;;;;;;;;;;5036554;28;19962;-83
2023/11/11 12:01:25;;;;;;;;;;;;;;;;;;5052896;28;19913;-87
2023/11/11 12:03:51;;;;;;;;;;;;;;;;;;5016091;28;20487;-86
2023/11/11 12:06:16;;;;;;;;;;;;;;;;;;5017637;28;19912;-84
2023/11/11 12:08:41;;;;;;;;;;;;;;;;;;5053546;28;20537;-87
2023/11/11 12:11:07;;;;;;;;;;;;;;;;;;5052818;28;19923;-86
2023/11/11 12:13:38;;;;;;;;;;;;;;;;;;5053497;28;19913;-84
2023/11/11 12:16:03;;;;;;;;;;;;;;;;;;5043245;28;19921;-84
2023/11/11 12:18:29;;;;;;;;;;;;;;;;;;5051757;28;19935;-83
2023/11/11 12:21:03;;;;;;;;;;;;;;;;;;5072142;28;20048;-84
2023/11/11 12:23:29;;;;;;;;;;;;;;;;;;5053870;28;19920;-86
2023/11/11 12:25:54;;;;;;;;;;;;;;;;;;5036216;28;19916;-87
2023/11/11 12:28:19;;;;;;;;;;;;;;;;;;5055051;28;20318;-89
2023/11/11 12:30:45;;;;;;;;;;;;;;;;;;5070804;28;19917;-86
2023/11/11 12:33:11;;;;;;;;;;;;;;;;;;5075565;28;19984;-85
2023/11/11 12:35:37;;;;;;;;;;;;;;;;;;5053255;28;19944;-86
2023/11/11 12:38:03;;;;;;;;;;;;;;;;;;5057618;28;19924;-85
2023/11/11 12:40:35;;;;;;;;;;;;;;;;;;5053311;28;19909;-84
2023/11/11 12:43:08;;;;;;;;;;;;;;;;;;5039970;28;20007;-85
2023/11/11 12:45:34;;;;;;;;;;;;;;;;;;5039628;28;20014;-86
2023/11/11 12:48:02;;;;;;;;;;;;;;;;;;5020134;28;19921;-84
2023/11/11 12:50:28;;;;;;;;;;;;;;;;;;5069414;28;19947;-84
2023/11/11 12:52:57;;;;;;;;;;;;;;;;;;5054659;28;20032;-85
2023/11/11 12:55:23;;;;;;;;;;;;;;;;;;5071683;28;19963;-84
2023/11/11 12:57:51;;;;;;;;;;;;;;;;;;5067735;28;20007;-86
2023/11/11 13:00:17;;;;;;;;;;;;;;;;;;5069424;28;19948;-86
2023/11/11 13:02:45;;;;;;;;;;;;;;;;;;5051084;28;19916;-83
2023/11/11 13:05:11;;;;;;;;;;;;;;;;;;5055454;28;19956;-88
2023/11/11 13:07:37;;;;;;;;;;;;;;;;;;5067662;28;19921;-86
2023/11/11 13:10:04;;;;;;;;;;;;;;;;;;5054093;28;19925;-88
2023/11/11 13:12:30;;;;;;;;;;;;;;;;;;5053795;28;19952;-87
2023/11/11 13:15:00;;;;;;;;;;;;;;;;;;5037127;28;20242;-84
2023/11/11 13:17:31;;;;;;;;;;;;;;;;;;5053079;28;19913;-86
2023/11/11 13:19:59;;;;;;;;;;;;;;;;;;5050198;28;19959;-87
2023/11/11 13:22:31;;;;;;;;;;;;;;;;;;5052810;28;19923;-86
2023/11/11 13:25:00;;;;;;;;;;;;;;;;;;5052570;28;19917;-83
2023/11/11 13:27:27;;;;;;;;;;;;;;;;;;5040970;28;20066;-84
2023/11/11 13:29:55;;;;;;;;;;;;;;;;;;5070855;28;19943;-87
2023/11/11 13:32:21;;;;;;;;;;;;;;;;;;5061507;28;19920;-84
2023/11/11 13:34:50;;;;;;;;;;;;;;;;;;5063603;28;19970;-84
2023/11/11 13:37:21;;;;;;;;;;;;;;;;;;5063524;28;19920;-83
2023/11/11 13:39:51;;;;;;;;;;;;;;;;;;5063825;28;19944;-82
2023/11/11 13:42:20;;;;;;;;;;;;;;;;;;5052993;28;19947;-83
2023/11/11 13:44:54;;;;;;;;;;;;;;;;;;5085308;28;19913;-83
2023/11/11 13:47:20;;;;;;;;;;;;;;;;;;5073302;28;19920;-83
2023/11/11 13:49:48;;;;;;;;;;;;;;;;;;5068510;28;19966;-84
2023/11/11 13:52:13;;;;;;;;;;;;;;;;;;5057335;28;19925;-86
2023/11/11 13:54:39;;;;;;;;;;;;;;;;;;5052184;28;20052;-84
2023/11/11 13:57:04;;;;;;;;;;;;;;;;;;5059556;28;19960;-85
2023/11/11 13:59:29;;;;;;;;;;;;;;;;;;5073260;28;19932;-86
2023/11/11 14:01:57;;;;;;;;;;;;;;;;;;5041717;28;19936;-84
2023/11/11 14:04:33;;;;;;;;;;;;;;;;;;5042186;28;19914;-86
2023/11/11 14:07:01;;;;;;;;;;;;;;;;;;5073818;28;19917;-87
2023/11/11 14:09:30;;;;;;;;;;;;;;;;;;5069082;28;20052;-86
2023/11/11 14:11:56;;;;;;;;;;;;;;;;;;5071685;28;20334;-84
2023/11/11 14:14:21;;;;;;;;;;;;;;;;;;5054139;28;19917;-85
2023/11/11 14:16:47;;;;;;;;;;;;;;;;;;5038009;28;19992;-84
2023/11/11 14:19:13;;;;;;;;;;;;;;;;;;5069706;28;20351;-87
2023/11/11 14:21:39;;;;;;;;;;;;;;;;;;5035408;28;20258;-86
2023/11/11 14:24:06;;;;;;;;;;;;;;;;;;5049728;28;19913;-88
2023/11/11 14:26:33;;;;;;;;;;;;;;;;;;5068795;28;19979;-87
2023/11/11 14:29:00;;;;;;;;;;;;;;;;;;5052980;28;20030;-86
2023/11/11 14:31:27;;;;;;;;;;;;;;;;;;5065839;28;19913;-87
2023/11/11 14:33:53;;;;;;;;;;;;;;;;;;5070709;28;19939;-88
2023/11/11 14:36:18;;;;;;;;;;;;;;;;;;5067050;28;19925;-88
2023/11/11 14:38:44;;;;;;;;;;;;;;;;;;5066802;28;20131;-85
2023/11/11 14:41:10;;;;;;;;;;;;;;;;;;5049410;28;19967;-86
2023/11/11 14:43:36;;;;;;;;;;;;;;;;;;5061583;28;19917;-86
2023/11/11 14:46:02;;;;;;;;;;;;;;;;;;5064003;28;19979;-87
2023/11/11 14:48:28;;;;;;;;;;;;;;;;;;5066322;28;19913;-88
2023/11/11 14:50:54;;;;;;;;;;;;;;;;;;5049920;28;19919;-86
2023/11/11 14:53:19;;;;;;;;;;;;;;;;;;5054287;28;19924;-88
2023/11/11 14:55:45;;;;;;;;;;;;;;;;;;5059516;28;19925;-85
2023/11/11 14:58:10;;;;;;;;;;;;;;;;;;5066716;28;19960;-86
2023/11/11 15:00:41;;;;;;;;;;;;;;;;;;5059495;28;19909;-86
2023/11/11 15:03:06;;;;;;;;;;;;;;;;;;5062263;28;19913;-83
2023/11/11 15:05:31;;;;;;;;;;;;;;;;;;5060641;28;19931;-86
2023/11/11 15:07:58;;;;;;;;;;;;;;;;;;5089117;28;19967;-88
2023/11/11 15:10:28;;;;;;;;;;;;;;;;;;5051326;28;19971;-85
2023/11/11 15:12:53;;;;;;;;;;;;;;;;;;5082572;28;19924;-82
2023/11/11 15:15:25;;;;;;;;;;;;;;;;;;5063803;28;19905;-85
2023/11/11 15:17:53;;;;;;;;;;;;;;;;;;5074998;28;20011;-83
2023/11/11 15:20:23;;;;;;;;;;;;;;;;;;5040519;28;20011;-88
2023/11/11 15:22:54;;;;;;;;;;;;;;;;;;5066237;28;19941;-83
2023/11/11 15:25:23;;;;;;;;;;;;;;;;;;5086200;28;19948;-84
2023/11/11 15:27:49;;;;;;;;;;;;;;;;;;5048722;28;19931;-85
2023/11/11 15:30:17;;;;;;;;;;;;;;;;;;5068897;28;19988;-83
2023/11/11 15:32:46;;;;;;;;;;;;;;;;;;5050960;28;19912;-85
2023/11/11 15:35:14;;;;;;;;;;;;;;;;;;5058333;28;19908;-85
2023/11/11 15:37:44;;;;;;;;;;;;;;;;;;5079901;28;19935;-84
2023/11/11 15:40:13;;;;;;;;;;;;;;;;;;5069283;28;19939;-84
2023/11/11 15:42:39;;;;;;;;;;;;;;;;;;5065549;28;19917;-88
2023/11/11 15:45:09;;;;;;;;;;;;;;;;;;5080457;28;19963;-85
2023/11/11 15:47:38;;;;;;;;;;;;;;;;;;5048558;28;19913;-86
2023/11/11 15:50:05;;;;;;;;;;;;;;;;;;5074162;28;19917;-86
2023/11/11 15:52:31;;;;;;;;;;;;;;;;;;5079116;28;19917;-87
2023/11/11 15:54:57;;;;;;;;;;;;;;;;;;5062309;28;20032;-87
2023/11/11 15:57:26;;;;;;;;;;;;;;;;;;5067658;28;19913;-86
2023/11/11 15:59:53;;;;;;;;;;;;;;;;;;5051311;28;20419;-88
2023/11/11 16:02:18;;;;;;;;;;;;;;;;;;5050282;28;19945;-85
2023/11/11 16:04:43;;;;;;;;;;;;;;;;;;5030851;28;19971;-86
2023/11/11 16:07:09;;;;;;;;;;;;;;;;;;5047474;28;19921;-84
2023/11/11 16:09:35;;;;;;;;;;;;;;;;;;5046265;28;19933;-84
2023/11/11 16:12:04;;;;;;;;;;;;;;;;;;5044516;28;19939;-86
2023/11/11 16:14:32;;;;;;;;;;;;;;;;;;5033039;28;19914;-86
2023/11/11 16:16:57;;;;;;;;;;;;;;;;;;5062874;28;20359;-87
2023/11/11 16:19:22;;;;;;;;;;;;;;;;;;5031534;28;19947;-86
2023/11/11 16:21:50;;;;;;;;;;;;;;;;;;5049004;28;20358;-90
2023/11/11 16:24:27;;;;;;;;;;;;;;;;;;5046988;28;19924;-84
2023/11/11 16:26:53;;;;;;;;;;;;;;;;;;5034873;28;20254;-88
2023/11/11 16:29:18;;;;;;;;;;;;;;;;;;5044897;28;20008;-83
2023/11/11 16:31:46;;;;;;;;;;;;;;;;;;5028821;28;19925;-88
2023/11/11 16:34:13;;;;;;;;;;;;;;;;;;5061715;28;19921;-86
2023/11/11 16:36:39;;;;;;;;;;;;;;;;;;5046416;28;20285;-86
2023/11/11 16:39:15;;;;;;;;;;;;;;;;;;5060827;28;19955;-85
2023/11/11 16:41:40;;;;;;;;;;;;;;;;;;5042645;28;20343;-84
2023/11/11 16:44:09;;;;;;;;;;;;;;;;;;5045232;28;19959;-87
2023/11/11 16:46:34;;;;;;;;;;;;;;;;;;5032166;28;20002;-85
2023/11/11 16:48:59;;;;;;;;;;;;;;;;;;5062189;28;20311;-87
2023/11/11 16:51:24;;;;;;;;;;;;;;;;;;5030531;28;20311;-86
2023/11/11 16:53:54;;;;;;;;;;;;;;;;;;5058643;28;20257;-89